sensor_id;sensor_type;location;lat;lon;timestamp;P1;durP1;ratioP1;P2;durP2;ratioP2
6255;SDS011;3161;48.794;9.784;2023-05-16T00:01:39;4.70;;;4.30;;
6255;SDS011;3161;48.794;9.784;2023-05-16T00:04:06;7.90;;;4.40;;
6255;SDS011;3161;48.794;9.784;2023-05-16T00:06:34;5.23;;;4.40;;
6255;SDS011;3161;48.794;9.784;2023-05-16T00:09:02;4.67;;;4.27;;
6255;SDS011;3161;48.794;9.784;2023-05-16T00:11:29;5.63;;;5.00;;
6255;SDS011;3161;48.794;9.784;2023-05-16T00:13:57;6.30;;;4.00;;
6255;SDS011;3161;48.794;9.784;2023-05-16T00:16:26;6.00;;;4.10;;
6255;SDS011;3161;48.794;9.784;2023-05-16T00:18:54;4.80;;;4.23;;
6255;SDS011;3161;48.794;9.784;2023-05-16T00:21:24;4.90;;;4.30;;
6255;SDS011;3161;48.794;9.784;2023-05-16T00:23:52;6.43;;;5.07;;
6255;SDS011;3161;48.794;9.784;2023-05-16T00:26:19;11.20;;;4.57;;
6255;SDS011;3161;48.794;9.784;2023-05-16T00:28:47;5.37;;;4.13;;
6255;SDS011;3161;48.794;9.784;2023-05-16T00:31:14;4.83;;;3.93;;
6255;SDS011;3161;48.794;9.784;2023-05-16T00:33:42;7.13;;;4.33;;
6255;SDS011;3161;48.794;9.784;2023-05-16T00:36:09;7.57;;;4.90;;
6255;SDS011;3161;48.794;9.784;2023-05-16T00:38:37;5.73;;;4.37;;
6255;SDS011;3161;48.794;9.784;2023-05-16T00:41:05;6.10;;;4.50;;
6255;SDS011;3161;48.794;9.784;2023-05-16T00:43:32;8.73;;;4.60;;
6255;SDS011;3161;48.794;9.784;2023-05-16T00:46:00;13.50;;;4.50;;
6255;SDS011;3161;48.794;9.784;2023-05-16T00:48:27;4.90;;;4.40;;
6255;SDS011;3161;48.794;9.784;2023-05-16T00:50:55;6.23;;;4.27;;
6255;SDS011;3161;48.794;9.784;2023-05-16T00:53:23;5.83;;;4.60;;
6255;SDS011;3161;48.794;9.784;2023-05-16T00:55:51;7.47;;;4.80;;
6255;SDS011;3161;48.794;9.784;2023-05-16T00:58:19;5.30;;;4.80;;
6255;SDS011;3161;48.794;9.784;2023-05-16T01:00:47;7.87;;;5.30;;
6255;SDS011;3161;48.794;9.784;2023-05-16T01:03:16;10.90;;;5.17;;
6255;SDS011;3161;48.794;9.784;2023-05-16T01:05:43;5.23;;;4.73;;
6255;SDS011;3161;48.794;9.784;2023-05-16T01:08:12;5.93;;;5.00;;
6255;SDS011;3161;48.794;9.784;2023-05-16T01:10:43;6.27;;;5.30;;
6255;SDS011;3161;48.794;9.784;2023-05-16T01:16:01;7.53;;;5.40;;
6255;SDS011;3161;48.794;9.784;2023-05-16T01:18:36;5.80;;;5.10;;
6255;SDS011;3161;48.794;9.784;2023-05-16T01:21:22;6.40;;;5.67;;
6255;SDS011;3161;48.794;9.784;2023-05-16T01:24:12;6.00;;;5.40;;
6255;SDS011;3161;48.794;9.784;2023-05-16T01:26:41;6.77;;;5.87;;
6255;SDS011;3161;48.794;9.784;2023-05-16T01:29:11;5.87;;;5.27;;
6255;SDS011;3161;48.794;9.784;2023-05-16T01:31:39;5.63;;;5.13;;
6255;SDS011;3161;48.794;9.784;2023-05-16T01:34:07;8.80;;;5.43;;
6255;SDS011;3161;48.794;9.784;2023-05-16T01:36:44;5.93;;;4.33;;
6255;SDS011;3161;48.794;9.784;2023-05-16T01:39:33;6.90;;;4.30;;
6255;SDS011;3161;48.794;9.784;2023-05-16T01:42:04;4.80;;;4.40;;
6255;SDS011;3161;48.794;9.784;2023-05-16T01:44:40;7.97;;;5.10;;
6255;SDS011;3161;48.794;9.784;2023-05-16T01:47:24;7.23;;;5.47;;
6255;SDS011;3161;48.794;9.784;2023-05-16T01:57:59;9.33;;;5.10;;
6255;SDS011;3161;48.794;9.784;2023-05-16T02:00:29;6.57;;;5.23;;
6255;SDS011;3161;48.794;9.784;2023-05-16T02:02:57;5.47;;;4.90;;
6255;SDS011;3161;48.794;9.784;2023-05-16T02:05:24;7.70;;;4.87;;
6255;SDS011;3161;48.794;9.784;2023-05-16T02:07:52;5.17;;;4.63;;
6255;SDS011;3161;48.794;9.784;2023-05-16T02:10:19;5.27;;;4.73;;
6255;SDS011;3161;48.794;9.784;2023-05-16T02:12:47;6.00;;;4.47;;
6255;SDS011;3161;48.794;9.784;2023-05-16T02:15:16;6.60;;;4.53;;
6255;SDS011;3161;48.794;9.784;2023-05-16T02:17:44;5.00;;;4.23;;
6255;SDS011;3161;48.794;9.784;2023-05-16T02:20:23;5.80;;;3.77;;
6255;SDS011;3161;48.794;9.784;2023-05-16T02:22:47;5.50;;;3.80;;
6255;SDS011;3161;48.794;9.784;2023-05-16T02:25:14;4.53;;;4.10;;
6255;SDS011;3161;48.794;9.784;2023-05-16T02:27:42;5.67;;;4.10;;
6255;SDS011;3161;48.794;9.784;2023-05-16T02:30:10;5.67;;;4.70;;
6255;SDS011;3161;48.794;9.784;2023-05-16T02:32:38;6.23;;;4.20;;
6255;SDS011;3161;48.794;9.784;2023-05-16T02:35:06;5.47;;;4.20;;
6255;SDS011;3161;48.794;9.784;2023-05-16T02:37:34;4.80;;;4.27;;
6255;SDS011;3161;48.794;9.784;2023-05-16T02:40:02;4.33;;;3.90;;
6255;SDS011;3161;48.794;9.784;2023-05-16T02:42:32;5.17;;;4.30;;
6255;SDS011;3161;48.794;9.784;2023-05-16T02:44:59;6.77;;;4.73;;
6255;SDS011;3161;48.794;9.784;2023-05-16T02:47:27;5.30;;;4.07;;
6255;SDS011;3161;48.794;9.784;2023-05-16T02:49:54;6.73;;;4.07;;
6255;SDS011;3161;48.794;9.784;2023-05-16T02:52:22;4.43;;;4.03;;
6255;SDS011;3161;48.794;9.784;2023-05-16T02:54:49;4.13;;;3.63;;
6255;SDS011;3161;48.794;9.784;2023-05-16T02:57:17;6.17;;;4.10;;
6255;SDS011;3161;48.794;9.784;2023-05-16T02:59:44;4.80;;;4.40;;
6255;SDS011;3161;48.794;9.784;2023-05-16T03:02:12;4.90;;;4.40;;
6255;SDS011;3161;48.794;9.784;2023-05-16T03:04:39;4.47;;;4.07;;
6255;SDS011;3161;48.794;9.784;2023-05-16T03:07:07;8.17;;;4.67;;
6255;SDS011;3161;48.794;9.784;2023-05-16T03:09:35;4.60;;;4.10;;
6255;SDS011;3161;48.794;9.784;2023-05-16T03:12:02;7.10;;;4.10;;
6255;SDS011;3161;48.794;9.784;2023-05-16T03:14:30;8.47;;;4.53;;
6255;SDS011;3161;48.794;9.784;2023-05-16T03:16:58;5.77;;;5.17;;
6255;SDS011;3161;48.794;9.784;2023-05-16T03:19:26;8.03;;;4.50;;
6255;SDS011;3161;48.794;9.784;2023-05-16T03:21:53;9.23;;;4.40;;
6255;SDS011;3161;48.794;9.784;2023-05-16T03:24:21;5.57;;;4.97;;
6255;SDS011;3161;48.794;9.784;2023-05-16T03:26:48;4.80;;;4.20;;
6255;SDS011;3161;48.794;9.784;2023-05-16T03:29:16;6.33;;;4.80;;
6255;SDS011;3161;48.794;9.784;2023-05-16T03:31:44;5.47;;;4.53;;
6255;SDS011;3161;48.794;9.784;2023-05-16T03:34:11;5.47;;;4.50;;
6255;SDS011;3161;48.794;9.784;2023-05-16T03:36:39;5.57;;;4.80;;
6255;SDS011;3161;48.794;9.784;2023-05-16T03:39:08;6.23;;;5.00;;
6255;SDS011;3161;48.794;9.784;2023-05-16T03:41:36;6.50;;;4.70;;
6255;SDS011;3161;48.794;9.784;2023-05-16T03:44:04;8.17;;;4.57;;
6255;SDS011;3161;48.794;9.784;2023-05-16T03:46:31;5.97;;;5.37;;
6255;SDS011;3161;48.794;9.784;2023-05-16T03:48:59;5.70;;;4.77;;
6255;SDS011;3161;48.794;9.784;2023-05-16T03:51:27;5.37;;;4.87;;
6255;SDS011;3161;48.794;9.784;2023-05-16T03:53:55;7.33;;;4.50;;
6255;SDS011;3161;48.794;9.784;2023-05-16T03:56:22;6.80;;;4.73;;
6255;SDS011;3161;48.794;9.784;2023-05-16T03:58:51;5.60;;;4.87;;
6255;SDS011;3161;48.794;9.784;2023-05-16T04:01:18;5.90;;;4.80;;
6255;SDS011;3161;48.794;9.784;2023-05-16T04:03:47;5.07;;;4.13;;
6255;SDS011;3161;48.794;9.784;2023-05-16T04:06:15;5.23;;;4.40;;
6255;SDS011;3161;48.794;9.784;2023-05-16T04:08:43;14.27;;;5.67;;
6255;SDS011;3161;48.794;9.784;2023-05-16T04:11:10;4.10;;;3.80;;
6255;SDS011;3161;48.794;9.784;2023-05-16T04:13:38;5.93;;;4.60;;
6255;SDS011;3161;48.794;9.784;2023-05-16T04:16:06;7.00;;;3.90;;
6255;SDS011;3161;48.794;9.784;2023-05-16T04:18:34;5.13;;;4.50;;
6255;SDS011;3161;48.794;9.784;2023-05-16T04:21:01;5.73;;;4.40;;
6255;SDS011;3161;48.794;9.784;2023-05-16T04:23:29;7.93;;;4.03;;
6255;SDS011;3161;48.794;9.784;2023-05-16T04:25:57;4.40;;;3.97;;
6255;SDS011;3161;48.794;9.784;2023-05-16T04:28:26;3.53;;;3.23;;
6255;SDS011;3161;48.794;9.784;2023-05-16T04:30:53;5.30;;;4.63;;
6255;SDS011;3161;48.794;9.784;2023-05-16T04:33:21;4.37;;;3.93;;
6255;SDS011;3161;48.794;9.784;2023-05-16T04:35:48;5.60;;;4.77;;
6255;SDS011;3161;48.794;9.784;2023-05-16T04:38:17;5.63;;;4.83;;
6255;SDS011;3161;48.794;9.784;2023-05-16T04:40:45;8.50;;;5.10;;
6255;SDS011;3161;48.794;9.784;2023-05-16T04:43:14;7.70;;;4.80;;
6255;SDS011;3161;48.794;9.784;2023-05-16T04:45:42;4.60;;;4.20;;
6255;SDS011;3161;48.794;9.784;2023-05-16T04:48:09;5.97;;;5.20;;
6255;SDS011;3161;48.794;9.784;2023-05-16T04:50:37;7.00;;;4.63;;
6255;SDS011;3161;48.794;9.784;2023-05-16T04:53:04;7.07;;;4.77;;
6255;SDS011;3161;48.794;9.784;2023-05-16T04:55:32;5.30;;;4.80;;
6255;SDS011;3161;48.794;9.784;2023-05-16T04:57:59;6.43;;;4.93;;
6255;SDS011;3161;48.794;9.784;2023-05-16T05:00:27;6.13;;;5.00;;
6255;SDS011;3161;48.794;9.784;2023-05-16T05:02:55;9.57;;;4.97;;
6255;SDS011;3161;48.794;9.784;2023-05-16T05:05:22;5.30;;;4.80;;
6255;SDS011;3161;48.794;9.784;2023-05-16T05:07:50;5.47;;;4.97;;
6255;SDS011;3161;48.794;9.784;2023-05-16T05:10:18;7.40;;;5.37;;
6255;SDS011;3161;48.794;9.784;2023-05-16T05:12:46;6.83;;;5.40;;
6255;SDS011;3161;48.794;9.784;2023-05-16T05:15:14;12.57;;;6.33;;
6255;SDS011;3161;48.794;9.784;2023-05-16T05:17:41;8.70;;;6.53;;
6255;SDS011;3161;48.794;9.784;2023-05-16T05:20:09;14.67;;;6.70;;
6255;SDS011;3161;48.794;9.784;2023-05-16T05:22:38;12.83;;;7.70;;
6255;SDS011;3161;48.794;9.784;2023-05-16T05:25:06;13.30;;;9.87;;
6255;SDS011;3161;48.794;9.784;2023-05-16T05:27:34;17.97;;;13.07;;
6255;SDS011;3161;48.794;9.784;2023-05-16T05:30:02;25.47;;;14.27;;
6255;SDS011;3161;48.794;9.784;2023-05-16T05:32:30;44.47;;;17.37;;
6255;SDS011;3161;48.794;9.784;2023-05-16T05:34:57;27.37;;;16.53;;
6255;SDS011;3161;48.794;9.784;2023-05-16T05:37:25;34.27;;;17.93;;
6255;SDS011;3161;48.794;9.784;2023-05-16T05:39:53;25.30;;;18.33;;
6255;SDS011;3161;48.794;9.784;2023-05-16T05:42:21;28.03;;;18.03;;
6255;SDS011;3161;48.794;9.784;2023-05-16T05:44:48;31.73;;;18.40;;
6255;SDS011;3161;48.794;9.784;2023-05-16T05:47:16;32.90;;;18.40;;
6255;SDS011;3161;48.794;9.784;2023-05-16T05:49:44;27.13;;;16.93;;
6255;SDS011;3161;48.794;9.784;2023-05-16T05:52:11;32.47;;;18.37;;
6255;SDS011;3161;48.794;9.784;2023-05-16T05:54:39;27.80;;;17.07;;
6255;SDS011;3161;48.794;9.784;2023-05-16T05:57:06;28.50;;;17.60;;
6255;SDS011;3161;48.794;9.784;2023-05-16T05:59:34;29.43;;;19.33;;
6255;SDS011;3161;48.794;9.784;2023-05-16T06:02:01;32.97;;;19.80;;
6255;SDS011;3161;48.794;9.784;2023-05-16T06:04:29;29.90;;;19.27;;
6255;SDS011;3161;48.794;9.784;2023-05-16T06:06:56;31.17;;;18.00;;
6255;SDS011;3161;48.794;9.784;2023-05-16T06:09:24;27.13;;;17.73;;
6255;SDS011;3161;48.794;9.784;2023-05-16T06:11:51;28.97;;;18.43;;
6255;SDS011;3161;48.794;9.784;2023-05-16T06:14:19;24.07;;;17.40;;
6255;SDS011;3161;48.794;9.784;2023-05-16T06:19:36;26.20;;;17.87;;
6255;SDS011;3161;48.794;9.784;2023-05-16T06:22:04;24.00;;;16.87;;
6255;SDS011;3161;48.794;9.784;2023-05-16T06:24:32;21.97;;;16.33;;
6255;SDS011;3161;48.794;9.784;2023-05-16T06:26:59;26.10;;;17.70;;
6255;SDS011;3161;48.794;9.784;2023-05-16T06:29:27;26.30;;;16.90;;
6255;SDS011;3161;48.794;9.784;2023-05-16T06:31:54;28.80;;;15.57;;
6255;SDS011;3161;48.794;9.784;2023-05-16T06:34:22;21.57;;;15.87;;
6255;SDS011;3161;48.794;9.784;2023-05-16T06:36:51;22.30;;;15.87;;
6255;SDS011;3161;48.794;9.784;2023-05-16T06:39:19;22.47;;;15.97;;
6255;SDS011;3161;48.794;9.784;2023-05-16T06:41:46;20.23;;;15.90;;
6255;SDS011;3161;48.794;9.784;2023-05-16T06:44:14;21.07;;;15.07;;
6255;SDS011;3161;48.794;9.784;2023-05-16T06:46:42;21.17;;;15.00;;
6255;SDS011;3161;48.794;9.784;2023-05-16T06:49:09;24.27;;;15.60;;
6255;SDS011;3161;48.794;9.784;2023-05-16T06:51:37;22.80;;;15.10;;
6255;SDS011;3161;48.794;9.784;2023-05-16T06:54:05;21.83;;;15.30;;
6255;SDS011;3161;48.794;9.784;2023-05-16T06:56:32;21.13;;;14.77;;
6255;SDS011;3161;48.794;9.784;2023-05-16T06:59:00;22.07;;;14.53;;
6255;SDS011;3161;48.794;9.784;2023-05-16T07:01:28;19.73;;;13.87;;
6255;SDS011;3161;48.794;9.784;2023-05-16T07:03:55;17.23;;;14.10;;
6255;SDS011;3161;48.794;9.784;2023-05-16T07:06:23;22.00;;;13.23;;
6255;SDS011;3161;48.794;9.784;2023-05-16T07:08:50;17.63;;;13.73;;
6255;SDS011;3161;48.794;9.784;2023-05-16T07:11:18;17.13;;;13.33;;
6255;SDS011;3161;48.794;9.784;2023-05-16T07:13:46;22.83;;;15.13;;
6255;SDS011;3161;48.794;9.784;2023-05-16T07:16:13;19.50;;;14.20;;
6255;SDS011;3161;48.794;9.784;2023-05-16T07:18:41;17.07;;;13.30;;
6255;SDS011;3161;48.794;9.784;2023-05-16T07:21:08;26.90;;;15.27;;
6255;SDS011;3161;48.794;9.784;2023-05-16T07:23:36;20.10;;;13.87;;
6255;SDS011;3161;48.794;9.784;2023-05-16T07:26:06;17.50;;;13.07;;
6255;SDS011;3161;48.794;9.784;2023-05-16T07:28:34;13.60;;;10.17;;
6255;SDS011;3161;48.794;9.784;2023-05-16T07:31:01;14.87;;;10.60;;
6255;SDS011;3161;48.794;9.784;2023-05-16T07:33:28;11.73;;;10.00;;
6255;SDS011;3161;48.794;9.784;2023-05-16T07:35:56;14.17;;;10.93;;
6255;SDS011;3161;48.794;9.784;2023-05-16T07:38:24;15.27;;;10.30;;
6255;SDS011;3161;48.794;9.784;2023-05-16T07:40:51;15.87;;;10.20;;
6255;SDS011;3161;48.794;9.784;2023-05-16T07:43:19;14.00;;;9.77;;
6255;SDS011;3161;48.794;9.784;2023-05-16T07:45:46;16.07;;;10.33;;
6255;SDS011;3161;48.794;9.784;2023-05-16T07:48:14;11.27;;;9.63;;
6255;SDS011;3161;48.794;9.784;2023-05-16T07:50:42;11.23;;;9.40;;
6255;SDS011;3161;48.794;9.784;2023-05-16T07:53:09;10.93;;;9.77;;
6255;SDS011;3161;48.794;9.784;2023-05-16T07:55:37;16.97;;;9.77;;
6255;SDS011;3161;48.794;9.784;2023-05-16T07:58:05;19.23;;;9.77;;
6255;SDS011;3161;48.794;9.784;2023-05-16T08:00:32;10.47;;;9.33;;
6255;SDS011;3161;48.794;9.784;2023-05-16T08:03:00;13.20;;;8.60;;
6255;SDS011;3161;48.794;9.784;2023-05-16T08:05:27;11.90;;;9.67;;
6255;SDS011;3161;48.794;9.784;2023-05-16T08:07:55;13.93;;;9.23;;
6255;SDS011;3161;48.794;9.784;2023-05-16T08:10:23;12.67;;;9.83;;
6255;SDS011;3161;48.794;9.784;2023-05-16T08:12:50;10.40;;;9.30;;
6255;SDS011;3161;48.794;9.784;2023-05-16T08:15:18;9.07;;;8.17;;
6255;SDS011;3161;48.794;9.784;2023-05-16T08:17:46;14.37;;;9.30;;
6255;SDS011;3161;48.794;9.784;2023-05-16T08:20:14;14.97;;;8.57;;
6255;SDS011;3161;48.794;9.784;2023-05-16T08:22:41;10.50;;;8.90;;
6255;SDS011;3161;48.794;9.784;2023-05-16T08:25:09;12.63;;;9.73;;
6255;SDS011;3161;48.794;9.784;2023-05-16T08:27:37;13.43;;;8.57;;
6255;SDS011;3161;48.794;9.784;2023-05-16T08:30:04;14.87;;;9.37;;
6255;SDS011;3161;48.794;9.784;2023-05-16T08:32:33;10.20;;;8.57;;
6255;SDS011;3161;48.794;9.784;2023-05-16T08:35:02;18.20;;;9.17;;
6255;SDS011;3161;48.794;9.784;2023-05-16T08:37:30;9.80;;;8.13;;
6255;SDS011;3161;48.794;9.784;2023-05-16T08:39:58;12.17;;;8.80;;
6255;SDS011;3161;48.794;9.784;2023-05-16T08:42:26;13.73;;;9.00;;
6255;SDS011;3161;48.794;9.784;2023-05-16T08:44:53;12.10;;;8.13;;
6255;SDS011;3161;48.794;9.784;2023-05-16T08:47:21;12.53;;;9.10;;
6255;SDS011;3161;48.794;9.784;2023-05-16T08:49:51;14.87;;;11.10;;
6255;SDS011;3161;48.794;9.784;2023-05-16T08:52:25;12.33;;;8.17;;
6255;SDS011;3161;48.794;9.784;2023-05-16T08:55:02;8.93;;;8.03;;
6255;SDS011;3161;48.794;9.784;2023-05-16T08:57:31;9.57;;;7.97;;
6255;SDS011;3161;48.794;9.784;2023-05-16T08:59:59;12.53;;;8.37;;
6255;SDS011;3161;48.794;9.784;2023-05-16T09:02:26;9.07;;;7.83;;
6255;SDS011;3161;48.794;9.784;2023-05-16T09:04:55;10.47;;;7.17;;
6255;SDS011;3161;48.794;9.784;2023-05-16T09:07:24;8.37;;;7.00;;
6255;SDS011;3161;48.794;9.784;2023-05-16T09:09:51;7.37;;;6.67;;
6255;SDS011;3161;48.794;9.784;2023-05-16T09:12:19;8.73;;;6.73;;
6255;SDS011;3161;48.794;9.784;2023-05-16T09:14:47;8.50;;;6.33;;
6255;SDS011;3161;48.794;9.784;2023-05-16T09:17:15;8.60;;;6.77;;
6255;SDS011;3161;48.794;9.784;2023-05-16T09:19:43;10.20;;;6.27;;
6255;SDS011;3161;48.794;9.784;2023-05-16T09:22:11;7.50;;;6.10;;
6255;SDS011;3161;48.794;9.784;2023-05-16T09:24:40;9.40;;;6.40;;
6255;SDS011;3161;48.794;9.784;2023-05-16T09:27:12;10.33;;;5.90;;
6255;SDS011;3161;48.794;9.784;2023-05-16T09:29:41;8.80;;;6.27;;
6255;SDS011;3161;48.794;9.784;2023-05-16T09:32:11;7.60;;;6.07;;
6255;SDS011;3161;48.794;9.784;2023-05-16T09:34:43;11.33;;;6.87;;
6255;SDS011;3161;48.794;9.784;2023-05-16T09:37:17;8.83;;;6.23;;
6255;SDS011;3161;48.794;9.784;2023-05-16T09:39:45;7.20;;;6.27;;
6255;SDS011;3161;48.794;9.784;2023-05-16T09:42:15;6.27;;;5.67;;
6255;SDS011;3161;48.794;9.784;2023-05-16T09:44:48;7.83;;;6.70;;
6255;SDS011;3161;48.794;9.784;2023-05-16T09:47:18;8.70;;;6.00;;
6255;SDS011;3161;48.794;9.784;2023-05-16T09:49:47;7.90;;;6.33;;
6255;SDS011;3161;48.794;9.784;2023-05-16T09:52:19;6.30;;;5.70;;
6255;SDS011;3161;48.794;9.784;2023-05-16T09:54:46;9.23;;;7.33;;
6255;SDS011;3161;48.794;9.784;2023-05-16T09:57:18;13.30;;;7.70;;
6255;SDS011;3161;48.794;9.784;2023-05-16T09:59:50;8.93;;;6.70;;
6255;SDS011;3161;48.794;9.784;2023-05-16T10:02:18;7.90;;;6.67;;
6255;SDS011;3161;48.794;9.784;2023-05-16T10:04:46;9.07;;;7.30;;
6255;SDS011;3161;48.794;9.784;2023-05-16T10:07:14;10.10;;;7.33;;
6255;SDS011;3161;48.794;9.784;2023-05-16T10:09:42;9.67;;;7.33;;
6255;SDS011;3161;48.794;9.784;2023-05-16T10:12:11;8.67;;;6.90;;
6255;SDS011;3161;48.794;9.784;2023-05-16T10:14:41;7.57;;;6.77;;
6255;SDS011;3161;48.794;9.784;2023-05-16T10:17:11;9.87;;;8.30;;
6255;SDS011;3161;48.794;9.784;2023-05-16T10:19:41;8.60;;;7.63;;
6255;SDS011;3161;48.794;9.784;2023-05-16T10:22:09;12.80;;;7.70;;
6255;SDS011;3161;48.794;9.784;2023-05-16T10:24:42;12.43;;;7.83;;
6255;SDS011;3161;48.794;9.784;2023-05-16T10:27:30;14.73;;;8.27;;
6255;SDS011;3161;48.794;9.784;2023-05-16T10:29:59;12.10;;;7.80;;
6255;SDS011;3161;48.794;9.784;2023-05-16T10:32:28;9.77;;;7.10;;
6255;SDS011;3161;48.794;9.784;2023-05-16T10:37:45;8.10;;;7.23;;
6255;SDS011;3161;48.794;9.784;2023-05-16T10:40:15;9.27;;;7.43;;
6255;SDS011;3161;48.794;9.784;2023-05-16T10:42:53;9.87;;;7.53;;
6255;SDS011;3161;48.794;9.784;2023-05-16T10:45:26;8.77;;;7.40;;
6255;SDS011;3161;48.794;9.784;2023-05-16T10:47:55;9.27;;;7.17;;
6255;SDS011;3161;48.794;9.784;2023-05-16T10:50:32;7.33;;;6.67;;
6255;SDS011;3161;48.794;9.784;2023-05-16T10:53:14;10.33;;;7.93;;
6255;SDS011;3161;48.794;9.784;2023-05-16T10:55:50;8.63;;;6.70;;
6255;SDS011;3161;48.794;9.784;2023-05-16T11:01:15;8.33;;;6.97;;
6255;SDS011;3161;48.794;9.784;2023-05-16T11:06:43;7.47;;;6.77;;
6255;SDS011;3161;48.794;9.784;2023-05-16T11:19:39;8.53;;;6.90;;
6255;SDS011;3161;48.794;9.784;2023-05-16T11:22:21;10.87;;;6.27;;
6255;SDS011;3161;48.794;9.784;2023-05-16T11:27:24;8.63;;;7.20;;
6255;SDS011;3161;48.794;9.784;2023-05-16T11:29:54;7.67;;;6.77;;
6255;SDS011;3161;48.794;9.784;2023-05-16T11:32:27;8.17;;;6.93;;
6255;SDS011;3161;48.794;9.784;2023-05-16T11:34:54;13.47;;;7.37;;
6255;SDS011;3161;48.794;9.784;2023-05-16T11:37:23;12.23;;;6.63;;
6255;SDS011;3161;48.794;9.784;2023-05-16T11:39:51;9.03;;;6.03;;
6255;SDS011;3161;48.794;9.784;2023-05-16T11:42:19;7.07;;;6.37;;
6255;SDS011;3161;48.794;9.784;2023-05-16T11:44:46;11.67;;;6.90;;
6255;SDS011;3161;48.794;9.784;2023-05-16T11:47:14;8.17;;;7.23;;
6255;SDS011;3161;48.794;9.784;2023-05-16T11:49:41;7.43;;;6.70;;
6255;SDS011;3161;48.794;9.784;2023-05-16T11:52:09;9.37;;;7.30;;
6255;SDS011;3161;48.794;9.784;2023-05-16T11:54:36;8.77;;;6.30;;
6255;SDS011;3161;48.794;9.784;2023-05-16T11:57:06;7.20;;;6.43;;
6255;SDS011;3161;48.794;9.784;2023-05-16T11:59:35;8.33;;;6.10;;
6255;SDS011;3161;48.794;9.784;2023-05-16T12:02:03;9.73;;;5.70;;
6255;SDS011;3161;48.794;9.784;2023-05-16T12:04:31;6.77;;;6.10;;
6255;SDS011;3161;48.794;9.784;2023-05-16T12:06:59;7.53;;;6.07;;
6255;SDS011;3161;48.794;9.784;2023-05-16T12:12:16;6.90;;;5.73;;
6255;SDS011;3161;48.794;9.784;2023-05-16T12:14:47;6.73;;;6.03;;
6255;SDS011;3161;48.794;9.784;2023-05-16T12:17:15;8.47;;;6.43;;
6255;SDS011;3161;48.794;9.784;2023-05-16T12:19:43;12.33;;;5.97;;
6255;SDS011;3161;48.794;9.784;2023-05-16T12:22:17;9.33;;;6.40;;
6255;SDS011;3161;48.794;9.784;2023-05-16T12:24:46;6.23;;;5.63;;
6255;SDS011;3161;48.794;9.784;2023-05-16T12:27:20;5.87;;;5.23;;
6255;SDS011;3161;48.794;9.784;2023-05-16T12:29:50;6.03;;;5.37;;
6255;SDS011;3161;48.794;9.784;2023-05-16T12:32:18;6.97;;;6.20;;
6255;SDS011;3161;48.794;9.784;2023-05-16T12:34:49;8.37;;;7.00;;
6255;SDS011;3161;48.794;9.784;2023-05-16T12:37:18;7.00;;;6.30;;
6255;SDS011;3161;48.794;9.784;2023-05-16T12:39:47;6.53;;;5.83;;
6255;SDS011;3161;48.794;9.784;2023-05-16T12:42:14;7.23;;;6.23;;
6255;SDS011;3161;48.794;9.784;2023-05-16T12:44:43;7.93;;;5.97;;
6255;SDS011;3161;48.794;9.784;2023-05-16T12:47:11;7.93;;;6.40;;
6255;SDS011;3161;48.794;9.784;2023-05-16T12:49:46;6.73;;;5.93;;
6255;SDS011;3161;48.794;9.784;2023-05-16T12:52:16;8.17;;;6.00;;
6255;SDS011;3161;48.794;9.784;2023-05-16T12:54:46;8.57;;;5.40;;
6255;SDS011;3161;48.794;9.784;2023-05-16T12:57:14;8.33;;;6.10;;
6255;SDS011;3161;48.794;9.784;2023-05-16T12:59:41;7.67;;;5.40;;
6255;SDS011;3161;48.794;9.784;2023-05-16T13:02:09;10.87;;;5.80;;
6255;SDS011;3161;48.794;9.784;2023-05-16T13:04:36;9.27;;;6.53;;
6255;SDS011;3161;48.794;9.784;2023-05-16T13:07:04;6.90;;;6.20;;
6255;SDS011;3161;48.794;9.784;2023-05-16T13:09:31;6.33;;;5.40;;
6255;SDS011;3161;48.794;9.784;2023-05-16T13:11:59;8.70;;;6.30;;
6255;SDS011;3161;48.794;9.784;2023-05-16T13:14:27;8.13;;;6.27;;
6255;SDS011;3161;48.794;9.784;2023-05-16T13:16:54;8.83;;;6.03;;
6255;SDS011;3161;48.794;9.784;2023-05-16T13:19:21;6.50;;;5.50;;
6255;SDS011;3161;48.794;9.784;2023-05-16T13:21:49;6.17;;;4.90;;
6255;SDS011;3161;48.794;9.784;2023-05-16T13:24:17;7.23;;;6.33;;
6255;SDS011;3161;48.794;9.784;2023-05-16T13:26:44;7.53;;;6.30;;
6255;SDS011;3161;48.794;9.784;2023-05-16T13:29:12;7.40;;;6.30;;
6255;SDS011;3161;48.794;9.784;2023-05-16T13:31:39;6.43;;;5.83;;
6255;SDS011;3161;48.794;9.784;2023-05-16T13:34:07;7.17;;;6.10;;
6255;SDS011;3161;48.794;9.784;2023-05-16T13:36:34;6.17;;;5.30;;
6255;SDS011;3161;48.794;9.784;2023-05-16T13:39:02;7.53;;;6.40;;
6255;SDS011;3161;48.794;9.784;2023-05-16T13:41:29;8.03;;;5.87;;
6255;SDS011;3161;48.794;9.784;2023-05-16T13:43:58;6.37;;;5.57;;
6255;SDS011;3161;48.794;9.784;2023-05-16T13:46:25;7.93;;;5.63;;
6255;SDS011;3161;48.794;9.784;2023-05-16T13:48:53;5.97;;;5.33;;
6255;SDS011;3161;48.794;9.784;2023-05-16T13:51:20;6.97;;;5.87;;
6255;SDS011;3161;48.794;9.784;2023-05-16T13:53:48;11.07;;;5.73;;
6255;SDS011;3161;48.794;9.784;2023-05-16T13:56:16;7.23;;;5.67;;
6255;SDS011;3161;48.794;9.784;2023-05-16T13:58:43;11.80;;;6.17;;
6255;SDS011;3161;48.794;9.784;2023-05-16T14:01:11;7.83;;;5.13;;
6255;SDS011;3161;48.794;9.784;2023-05-16T14:03:40;5.90;;;5.27;;
6255;SDS011;3161;48.794;9.784;2023-05-16T14:06:08;6.57;;;5.60;;
6255;SDS011;3161;48.794;9.784;2023-05-16T14:08:43;8.07;;;5.13;;
6255;SDS011;3161;48.794;9.784;2023-05-16T14:11:10;4.97;;;4.47;;
6255;SDS011;3161;48.794;9.784;2023-05-16T14:13:38;4.73;;;4.20;;
6255;SDS011;3161;48.794;9.784;2023-05-16T14:16:05;8.67;;;4.50;;
6255;SDS011;3161;48.794;9.784;2023-05-16T14:18:33;5.10;;;4.60;;
6255;SDS011;3161;48.794;9.784;2023-05-16T14:21:01;4.60;;;4.10;;
6255;SDS011;3161;48.794;9.784;2023-05-16T14:23:28;4.97;;;4.23;;
6255;SDS011;3161;48.794;9.784;2023-05-16T14:25:56;4.73;;;3.80;;
6255;SDS011;3161;48.794;9.784;2023-05-16T14:28:23;5.27;;;3.93;;
6255;SDS011;3161;48.794;9.784;2023-05-16T14:30:51;3.57;;;3.27;;
6255;SDS011;3161;48.794;9.784;2023-05-16T14:33:19;5.73;;;3.73;;
6255;SDS011;3161;48.794;9.784;2023-05-16T14:35:47;4.80;;;3.80;;
6255;SDS011;3161;48.794;9.784;2023-05-16T14:38:15;9.30;;;3.93;;
6255;SDS011;3161;48.794;9.784;2023-05-16T14:40:42;4.50;;;4.10;;
6255;SDS011;3161;48.794;9.784;2023-05-16T14:43:10;11.70;;;5.50;;
6255;SDS011;3161;48.794;9.784;2023-05-16T14:45:38;3.93;;;3.10;;
6255;SDS011;3161;48.794;9.784;2023-05-16T14:48:06;3.87;;;3.13;;
6255;SDS011;3161;48.794;9.784;2023-05-16T14:50:34;4.70;;;3.13;;
6255;SDS011;3161;48.794;9.784;2023-05-16T14:53:01;2.20;;;2.10;;
6255;SDS011;3161;48.794;9.784;2023-05-16T14:55:29;3.23;;;2.93;;
6255;SDS011;3161;48.794;9.784;2023-05-16T14:57:56;3.53;;;2.27;;
6255;SDS011;3161;48.794;9.784;2023-05-16T15:00:24;2.83;;;2.50;;
6255;SDS011;3161;48.794;9.784;2023-05-16T15:02:52;2.83;;;2.47;;
6255;SDS011;3161;48.794;9.784;2023-05-16T15:05:19;2.90;;;2.30;;
6255;SDS011;3161;48.794;9.784;2023-05-16T15:07:47;2.80;;;2.10;;
6255;SDS011;3161;48.794;9.784;2023-05-16T15:10:15;2.63;;;2.43;;
6255;SDS011;3161;48.794;9.784;2023-05-16T15:12:43;1.90;;;1.80;;
6255;SDS011;3161;48.794;9.784;2023-05-16T15:15:10;4.30;;;1.90;;
6255;SDS011;3161;48.794;9.784;2023-05-16T15:17:39;3.27;;;1.93;;
6255;SDS011;3161;48.794;9.784;2023-05-16T15:20:07;1.70;;;1.60;;
6255;SDS011;3161;48.794;9.784;2023-05-16T15:22:37;2.80;;;1.90;;
6255;SDS011;3161;48.794;9.784;2023-05-16T15:25:06;1.60;;;1.50;;
6255;SDS011;3161;48.794;9.784;2023-05-16T15:27:34;1.70;;;1.60;;
6255;SDS011;3161;48.794;9.784;2023-05-16T15:30:02;4.07;;;1.50;;
6255;SDS011;3161;48.794;9.784;2023-05-16T15:32:30;2.00;;;1.90;;
6255;SDS011;3161;48.794;9.784;2023-05-16T15:34:58;1.70;;;1.60;;
6255;SDS011;3161;48.794;9.784;2023-05-16T15:37:26;1.70;;;1.60;;
6255;SDS011;3161;48.794;9.784;2023-05-16T15:39:53;3.37;;;1.70;;
6255;SDS011;3161;48.794;9.784;2023-05-16T15:42:21;1.87;;;1.73;;
6255;SDS011;3161;48.794;9.784;2023-05-16T15:44:49;7.47;;;2.03;;
6255;SDS011;3161;48.794;9.784;2023-05-16T15:47:16;1.57;;;1.47;;
6255;SDS011;3161;48.794;9.784;2023-05-16T15:49:44;2.30;;;1.50;;
6255;SDS011;3161;48.794;9.784;2023-05-16T15:52:11;1.70;;;1.50;;
6255;SDS011;3161;48.794;9.784;2023-05-16T15:54:39;1.27;;;1.17;;
6255;SDS011;3161;48.794;9.784;2023-05-16T15:57:06;6.93;;;1.40;;